TimeCST,TemperatureF,Dew PointF,Humidity,Sea Level PressureIn,VisibilityMPH,Wind Direction,Wind SpeedMPH,Gust SpeedMPH,PrecipitationIn,Events,Conditions,WindDirDegrees,DateUTC
12:15 AM,19.4,19.4,100,29.86,10.0,North,24.2,28.8,N/A,,Overcast,360,2013-02-11 06:15:00
12:35 AM,19.4,19.4,100,29.87,10.0,North,25.3,29.9,N/A,,Overcast,10,2013-02-11 06:35:00
12:55 AM,19.4,19.4,100,29.87,10.0,North,20.7,28.8,N/A,Snow,Light Snow,360,2013-02-11 06:55:00
1:15 AM,19.4,17.6,93,29.88,10.0,North,18.4,27.6,N/A,Snow,Light Snow,350,2013-02-11 07:15:00
1:35 AM,17.6,17.6,100,29.88,10.0,North,23.0,29.9,N/A,,Overcast,350,2013-02-11 07:35:00
1:55 AM,17.6,17.6,100,29.88,10.0,North,21.9,26.5,N/A,,Overcast,350,2013-02-11 07:55:00
2:15 AM,17.6,17.6,100,29.89,10.0,North,21.9,27.6,N/A,Snow,Light Snow,350,2013-02-11 08:15:00
2:35 AM,17.6,17.6,100,29.89,10.0,NNW,21.9,-,N/A,,Overcast,340,2013-02-11 08:35:00
2:55 AM,17.6,17.6,100,29.89,10.0,NNW,23.0,27.6,N/A,,Overcast,340,2013-02-11 08:55:00
3:15 AM,17.6,17.6,100,29.90,7.0,North,19.6,23.0,N/A,,Overcast,350,2013-02-11 09:15:00
3:35 AM,17.6,17.6,100,29.91,10.0,North,19.6,28.8,N/A,,Overcast,350,2013-02-11 09:35:00
3:55 AM,17.6,17.6,100,29.91,7.0,North,18.4,24.2,N/A,,Overcast,350,2013-02-11 09:55:00
4:15 AM,17.6,17.6,100,29.91,10.0,NNW,16.1,-,N/A,,Overcast,340,2013-02-11 10:15:00
4:35 AM,17.6,17.6,100,29.91,10.0,NNW,18.4,-,N/A,,Overcast,340,2013-02-11 10:35:00
4:55 AM,17.6,15.8,93,29.91,10.0,NNW,18.4,-,N/A,,Overcast,340,2013-02-11 10:55:00
5:15 AM,17.6,15.8,93,29.92,10.0,NNW,18.4,-,N/A,,Overcast,340,2013-02-11 11:15:00
5:35 AM,17.6,17.6,100,29.92,10.0,NNW,19.6,-,N/A,,Overcast,340,2013-02-11 11:35:00
6:15 AM,17.6,15.8,93,29.92,10.0,NNW,18.4,-,N/A,,Overcast,330,2013-02-11 12:15:00
6:35 AM,17.6,15.8,93,29.93,10.0,NNW,15.0,-,N/A,,Overcast,330,2013-02-11 12:35:00
6:55 AM,17.6,15.8,93,29.94,10.0,NNW,16.1,-,N/A,,Overcast,340,2013-02-11 12:55:00
7:15 AM,17.6,15.8,93,29.94,10.0,NNW,13.8,-,N/A,,Overcast,330,2013-02-11 13:15:00
7:35 AM,17.6,15.8,93,29.94,10.0,NNW,20.7,-,N/A,,Overcast,330,2013-02-11 13:35:00
7:55 AM,14.0,14.0,100,29.95,10.0,NNW,15.0,-,N/A,,Mostly Cloudy,330,2013-02-11 13:55:00
8:15 AM,15.8,14.0,93,29.96,10.0,NNW,19.6,-,N/A,,Overcast,330,2013-02-11 14:15:00
8:35 AM,15.8,15.8,100,29.96,10.0,NNW,17.3,20.7,N/A,Snow,Light Snow,330,2013-02-11 14:35:00
8:55 AM,15.8,15.8,100,29.97,10.0,NNW,13.8,-,N/A,Snow,Light Snow,330,2013-02-11 14:55:00
9:15 AM,17.6,15.8,93,29.96,4.0,NNW,15.0,-,N/A,,Overcast,330,2013-02-11 15:15:00
9:35 AM,17.6,17.6,100,29.96,2.0,NW,11.5,-,N/A,Snow,Light Snow,320,2013-02-11 15:35:00
9:55 AM,17.6,17.6,100,29.96,2.0,NW,11.5,-,N/A,Snow,Light Snow,320,2013-02-11 15:55:00
10:15 AM,17.6,17.6,100,29.96,9.0,NW,10.4,-,N/A,,Overcast,320,2013-02-11 16:15:00
10:35 AM,17.6,17.6,100,29.97,10.0,NW,11.5,-,N/A,,Overcast,310,2013-02-11 16:35:00
10:55 AM,17.6,17.6,100,29.97,10.0,WNW,13.8,-,N/A,Snow,Light Snow,300,2013-02-11 16:55:00
11:15 AM,17.6,17.6,100,29.97,10.0,WNW,16.1,-,N/A,Snow,Light Snow,300,2013-02-11 17:15:00
11:35 AM,17.6,17.6,100,29.97,10.0,WNW,15.0,-,N/A,Snow,Light Snow,300,2013-02-11 17:35:00
11:55 AM,17.6,17.6,100,29.96,10.0,WNW,15.0,-,N/A,,Overcast,300,2013-02-11 17:55:00
12:15 PM,17.6,17.6,100,29.96,10.0,WNW,13.8,-,N/A,,Overcast,300,2013-02-11 18:15:00
12:35 PM,19.4,15.8,86,29.95,10.0,WNW,15.0,-,N/A,,Overcast,290,2013-02-11 18:35:00
12:55 PM,17.6,15.8,93,29.94,10.0,WNW,15.0,-,N/A,,Overcast,290,2013-02-11 18:55:00
1:15 PM,17.6,15.8,93,29.94,10.0,WNW,17.3,-,N/A,,Overcast,290,2013-02-11 19:15:00
1:35 PM,17.6,15.8,93,29.94,10.0,WNW,16.1,-,N/A,,Overcast,290,2013-02-11 19:35:00
1:55 PM,17.6,15.8,93,29.93,10.0,WNW,15.0,-,N/A,,Mostly Cloudy,290,2013-02-11 19:55:00
2:15 PM,17.6,15.8,93,29.93,10.0,West,16.1,-,N/A,,Scattered Clouds,280,2013-02-11 20:15:00
2:35 PM,17.6,14.0,86,29.93,10.0,West,13.8,-,N/A,,Partly Cloudy,280,2013-02-11 20:35:00
2:55 PM,17.6,14.0,86,29.93,10.0,West,13.8,-,N/A,Snow,Light Snow,260,2013-02-11 20:55:00
3:15 PM,17.6,14.0,86,29.92,10.0,West,15.0,-,N/A,Snow,Light Snow,270,2013-02-11 21:15:00
3:35 PM,17.6,14.0,86,29.92,9.0,West,16.1,-,N/A,Snow,Light Snow,270,2013-02-11 21:35:00
3:55 PM,17.6,14.0,86,29.91,10.0,West,12.7,-,N/A,Snow,Light Snow,260,2013-02-11 21:55:00
4:55 PM,15.8,14.0,93,29.90,10.0,West,12.7,-,N/A,Snow,Light Snow,260,2013-02-11 22:55:00
5:15 PM,17.6,14.0,86,29.90,7.0,West,18.4,24.2,N/A,Snow,Light Snow,260,2013-02-11 23:15:00
5:35 PM,17.6,14.0,86,29.89,10.0,West,13.8,-,N/A,,Overcast,270,2013-02-11 23:35:00
5:55 PM,17.6,14.0,86,29.88,10.0,West,11.5,-,N/A,,Overcast,260,2013-02-11 23:55:00
6:15 PM,17.6,14.0,86,29.87,10.0,SW,10.4,-,N/A,,Overcast,230,2013-02-12 00:15:00
6:35 PM,15.8,14.0,93,29.87,10.0,SW,12.7,-,N/A,,Overcast,230,2013-02-12 00:35:00
6:55 PM,17.6,14.0,86,29.86,10.0,SW,11.5,-,N/A,,Overcast,230,2013-02-12 00:55:00
7:15 PM,17.6,15.8,93,29.86,10.0,SW,10.4,-,N/A,,Overcast,220,2013-02-12 01:15:00
7:35 PM,17.6,15.8,93,29.85,10.0,SSW,10.4,-,N/A,,Overcast,210,2013-02-12 01:35:00
7:55 PM,15.8,14.0,93,29.85,10.0,SW,9.2,-,N/A,,Overcast,220,2013-02-12 01:55:00
8:15 PM,15.8,14.0,93,29.84,10.0,SSW,11.5,-,N/A,,Overcast,210,2013-02-12 02:15:00
8:35 PM,15.8,14.0,93,29.83,10.0,SSW,11.5,-,N/A,,Mostly Cloudy,210,2013-02-12 02:35:00
8:55 PM,15.8,14.0,93,29.82,10.0,SSW,12.7,-,N/A,,Partly Cloudy,200,2013-02-12 02:55:00
9:15 PM,15.8,14.0,93,29.81,10.0,SSW,11.5,-,N/A,,Mostly Cloudy,210,2013-02-12 03:15:00
9:35 PM,15.8,14.0,93,29.80,10.0,SSW,13.8,-,N/A,,Overcast,210,2013-02-12 03:35:00
9:55 PM,17.6,15.8,93,29.79,10.0,SW,15.0,-,N/A,,Overcast,220,2013-02-12 03:55:00
10:15 PM,17.6,15.8,93,29.78,7.0,SW,16.1,-,N/A,,Overcast,220,2013-02-12 04:15:00
10:35 PM,19.4,17.6,93,29.77,10.0,SW,17.3,-,N/A,,Overcast,220,2013-02-12 04:35:00
10:55 PM,17.6,15.8,93,29.76,10.0,SW,15.0,-,N/A,,Overcast,220,2013-02-12 04:55:00
11:15 PM,19.4,15.8,86,29.75,10.0,SW,13.8,-,N/A,,Overcast,230,2013-02-12 05:15:00
11:35 PM,19.4,15.8,86,29.74,10.0,SW,15.0,-,N/A,,Overcast,230,2013-02-12 05:35:00
11:55 PM,19.4,15.8,86,29.74,10.0,SW,17.3,-,N/A,,Partly Cloudy,230,2013-02-12 05:55:00